METAR Data
IDs: Format: Raw Decoded Include TAF

Data at: 1808 UTC 03 Jul 2020

METAR for:KOUN (Norman/Univ Oklahoma, OK, US)
Text:KOUN 031745Z 00000KT 10SM CLR 32/21 A3001 RMK LGT DSNT N
Temperature: 32.0°C ( 90°F)
Dewpoint: 21.0°C ( 70°F) [RH = 52%]
Pressure (altimeter):30.01 inches Hg (1016.3 mb)
Winds:calm
Visibility:10 or more sm (16+ km)
Ceiling:at least 12,000 feet AGL
Clouds:sky clear below 12,000 feet AGL
Text:KOUN 031645Z 00000KT 10SM CLR 31/22 A3001
Temperature: 31.0°C ( 88°F)
Dewpoint: 22.0°C ( 72°F) [RH = 59%]
Pressure (altimeter):30.01 inches Hg (1016.3 mb)
Winds:calm
Visibility:10 or more sm (16+ km)
Ceiling:at least 12,000 feet AGL
Clouds:sky clear below 12,000 feet AGL
Text:KOUN 031546Z 06003KT 10SM CLR 29/22 A3002
Temperature: 29.0°C ( 84°F)
Dewpoint: 22.0°C ( 72°F) [RH = 66%]
Pressure (altimeter):30.02 inches Hg (1016.7 mb)
Winds:from the ENE (60 degrees) at 3 MPH (3 knots; 1.5 m/s)
Visibility:10 or more sm (16+ km)
Ceiling:at least 12,000 feet AGL
Clouds:sky clear below 12,000 feet AGL
Text:KOUN 031445Z 06006KT 10SM CLR 27/21 A3004
Temperature: 27.0°C ( 81°F)
Dewpoint: 21.0°C ( 70°F) [RH = 70%]
Pressure (altimeter):30.04 inches Hg (1017.4 mb)
Winds:from the ENE (60 degrees) at 7 MPH (6 knots; 3.1 m/s)
Visibility:10 or more sm (16+ km)
Ceiling:at least 12,000 feet AGL
Clouds:sky clear below 12,000 feet AGL
Text:KOUN 031345Z 03004KT 10SM CLR 26/21 A3003
Temperature: 26.0°C ( 79°F)
Dewpoint: 21.0°C ( 70°F) [RH = 74%]
Pressure (altimeter):30.03 inches Hg (1017.0 mb)
Winds:from the NNE (30 degrees) at 5 MPH (4 knots; 2.1 m/s)
Visibility:10 or more sm (16+ km)
Ceiling:at least 12,000 feet AGL
Clouds:sky clear below 12,000 feet AGL
Text:KOUN 031245Z 08006KT 10SM CLR 24/21 A3002
Temperature: 24.0°C ( 75°F)
Dewpoint: 21.0°C ( 70°F) [RH = 83%]
Pressure (altimeter):30.02 inches Hg (1016.7 mb)
Winds:from the E (80 degrees) at 7 MPH (6 knots; 3.1 m/s)
Visibility:10 or more sm (16+ km)
Ceiling:at least 12,000 feet AGL
Clouds:sky clear below 12,000 feet AGL
Text:KOUN 031235Z AUTO 09006KT 10SM CLR 24/21 A3002 RMK AO2 T02410211
Temperature: 24.1°C ( 75°F)
Dewpoint: 21.1°C ( 70°F) [RH = 83%]
Pressure (altimeter):30.02 inches Hg (1016.7 mb)
Winds:from the E (90 degrees) at 7 MPH (6 knots; 3.1 m/s)
Visibility:10 or more sm (16+ km)
Ceiling:at least 12,000 feet AGL
Clouds:sky clear below 12,000 feet AGL
QC Flag:automated observation with no human augmentation
Text:KOUN 031215Z AUTO 06007KT 10SM CLR 23/21 A3003 RMK AO2 T02290211
Temperature: 22.9°C ( 73°F)
Dewpoint: 21.1°C ( 70°F) [RH = 90%]
Pressure (altimeter):30.03 inches Hg (1017.0 mb)
Winds:from the ENE (60 degrees) at 8 MPH (7 knots; 3.6 m/s)
Visibility:10 or more sm (16+ km)
Ceiling:at least 12,000 feet AGL
Clouds:sky clear below 12,000 feet AGL
QC Flag:automated observation with no human augmentation
Text:KOUN 031155Z AUTO 00000KT 10SM CLR 22/21 A3001 RMK AO2 T02250207 10243 20220
Temperature: 22.5°C ( 72°F)
Dewpoint: 20.7°C ( 69°F) [RH = 90%]
Pressure (altimeter):30.01 inches Hg (1016.3 mb)
Winds:calm
Visibility:10 or more sm (16+ km)
Ceiling:at least 12,000 feet AGL
Clouds:sky clear below 12,000 feet AGL
QC Flag:automated observation with no human augmentation
Text:KOUN 031135Z AUTO 01003KT 10SM CLR 23/21 A3000 RMK AO2 T02260207
Temperature: 22.6°C ( 73°F)
Dewpoint: 20.7°C ( 69°F) [RH = 89%]
Pressure (altimeter):30.00 inches Hg (1016.0 mb)
Winds:from the N (10 degrees) at 3 MPH (3 knots; 1.5 m/s)
Visibility:10 or more sm (16+ km)
Ceiling:at least 12,000 feet AGL
Clouds:sky clear below 12,000 feet AGL
QC Flag:automated observation with no human augmentation
Text:KOUN 031115Z AUTO 19006G18KT 10SM SCT090 23/21 A2998 RMK AO2 T02320209
Temperature: 23.2°C ( 74°F)
Dewpoint: 20.9°C ( 70°F) [RH = 87%]
Pressure (altimeter):29.98 inches Hg (1015.3 mb)
Winds:from the S (190 degrees) at 7 MPH (6 knots; 3.1 m/s) gusting to 21 MPH (18 knots; 9.3 m/s)
Visibility:10 or more sm (16+ km)
Ceiling:at least 12,000 feet AGL
Clouds: scattered clouds at 9000 feet AGL
QC Flag:automated observation with no human augmentation
Text:KOUN 031055Z AUTO 13006KT 10SM SCT090 24/21 A2999 RMK AO2 T02350209
Temperature: 23.5°C ( 74°F)
Dewpoint: 20.9°C ( 70°F) [RH = 85%]
Pressure (altimeter):29.99 inches Hg (1015.7 mb)
Winds:from the SE (130 degrees) at 7 MPH (6 knots; 3.1 m/s)
Visibility:10 or more sm (16+ km)
Ceiling:at least 12,000 feet AGL
Clouds: scattered clouds at 9000 feet AGL
QC Flag:automated observation with no human augmentation
Text:KOUN 031035Z AUTO 34009G16KT 10SM CLR 23/21 A3000 RMK AO2 T02280207
Temperature: 22.8°C ( 73°F)
Dewpoint: 20.7°C ( 69°F) [RH = 88%]
Pressure (altimeter):30.00 inches Hg (1016.0 mb)
Winds:from the NNW (340 degrees) at 10 MPH (9 knots; 4.6 m/s) gusting to 18 MPH (16 knots; 8.2 m/s)
Visibility:10 or more sm (16+ km)
Ceiling:at least 12,000 feet AGL
Clouds:sky clear below 12,000 feet AGL
QC Flag:automated observation with no human augmentation
Text:KOUN 031015Z AUTO 18004KT 10SM CLR 23/21 A2997 RMK AO2 T02320207
Temperature: 23.2°C ( 74°F)
Dewpoint: 20.7°C ( 69°F) [RH = 86%]
Pressure (altimeter):29.97 inches Hg (1015.0 mb)
Winds:from the S (180 degrees) at 5 MPH (4 knots; 2.1 m/s)
Visibility:10 or more sm (16+ km)
Ceiling:at least 12,000 feet AGL
Clouds:sky clear below 12,000 feet AGL
QC Flag:automated observation with no human augmentation
Text:KOUN 030955Z AUTO 17004KT 10SM CLR 23/21 A2997 RMK AO2 T02280207
Temperature: 22.8°C ( 73°F)
Dewpoint: 20.7°C ( 69°F) [RH = 88%]
Pressure (altimeter):29.97 inches Hg (1015.0 mb)
Winds:from the S (170 degrees) at 5 MPH (4 knots; 2.1 m/s)
Visibility:10 or more sm (16+ km)
Ceiling:at least 12,000 feet AGL
Clouds:sky clear below 12,000 feet AGL
QC Flag:automated observation with no human augmentation
Text:KOUN 030935Z AUTO 12005KT 10SM CLR 23/21 A2997 RMK AO2 T02300207
Temperature: 23.0°C ( 73°F)
Dewpoint: 20.7°C ( 69°F) [RH = 87%]
Pressure (altimeter):29.97 inches Hg (1015.0 mb)
Winds:from the ESE (120 degrees) at 6 MPH (5 knots; 2.6 m/s)
Visibility:10 or more sm (16+ km)
Ceiling:at least 12,000 feet AGL
Clouds:sky clear below 12,000 feet AGL
QC Flag:automated observation with no human augmentation
Text:KOUN 030915Z AUTO 09004KT 10SM CLR 23/21 A2998 RMK AO2 T02330208
Temperature: 23.3°C ( 74°F)
Dewpoint: 20.8°C ( 69°F) [RH = 86%]
Pressure (altimeter):29.98 inches Hg (1015.3 mb)
Winds:from the E (90 degrees) at 5 MPH (4 knots; 2.1 m/s)
Visibility:10 or more sm (16+ km)
Ceiling:at least 12,000 feet AGL
Clouds:sky clear below 12,000 feet AGL
QC Flag:automated observation with no human augmentation
Text:KOUN 030855Z AUTO 00000KT 10SM CLR 23/21 A2997 RMK AO2 T02320208
Temperature: 23.2°C ( 74°F)
Dewpoint: 20.8°C ( 69°F) [RH = 86%]
Pressure (altimeter):29.97 inches Hg (1015.0 mb)
Winds:calm
Visibility:10 or more sm (16+ km)
Ceiling:at least 12,000 feet AGL
Clouds:sky clear below 12,000 feet AGL
QC Flag:automated observation with no human augmentation
Text:KOUN 030835Z AUTO 12004KT 10SM CLR 24/21 A2997 RMK AO2 T02350207
Temperature: 23.5°C ( 74°F)
Dewpoint: 20.7°C ( 69°F) [RH = 84%]
Pressure (altimeter):29.97 inches Hg (1015.0 mb)
Winds:from the ESE (120 degrees) at 5 MPH (4 knots; 2.1 m/s)
Visibility:10 or more sm (16+ km)
Ceiling:at least 12,000 feet AGL
Clouds:sky clear below 12,000 feet AGL
QC Flag:automated observation with no human augmentation
Text:KOUN 030815Z AUTO 12003KT 10SM CLR 23/21 A2997 RMK AO2 T02320207
Temperature: 23.2°C ( 74°F)
Dewpoint: 20.7°C ( 69°F) [RH = 86%]
Pressure (altimeter):29.97 inches Hg (1015.0 mb)
Winds:from the ESE (120 degrees) at 3 MPH (3 knots; 1.5 m/s)
Visibility:10 or more sm (16+ km)
Ceiling:at least 12,000 feet AGL
Clouds:sky clear below 12,000 feet AGL
QC Flag:automated observation with no human augmentation
Text:KOUN 030755Z AUTO 14004KT 10SM CLR 23/21 A2997 RMK AO2 T02340207
Temperature: 23.4°C ( 74°F)
Dewpoint: 20.7°C ( 69°F) [RH = 85%]
Pressure (altimeter):29.97 inches Hg (1015.0 mb)
Winds:from the SE (140 degrees) at 5 MPH (4 knots; 2.1 m/s)
Visibility:10 or more sm (16+ km)
Ceiling:at least 12,000 feet AGL
Clouds:sky clear below 12,000 feet AGL
QC Flag:automated observation with no human augmentation
Text:KOUN 030735Z AUTO 00000KT 10SM CLR 23/21 A2996 RMK AO2 T02350208
Temperature: 23.5°C ( 74°F)
Dewpoint: 20.8°C ( 69°F) [RH = 85%]
Pressure (altimeter):29.96 inches Hg (1014.6 mb)
Winds:calm
Visibility:10 or more sm (16+ km)
Ceiling:at least 12,000 feet AGL
Clouds:sky clear below 12,000 feet AGL
QC Flag:automated observation with no human augmentation
Text:KOUN 030715Z AUTO 00000KT 10SM CLR 24/21 A2996 RMK AO2 T02360206
Temperature: 23.6°C ( 74°F)
Dewpoint: 20.6°C ( 69°F) [RH = 83%]
Pressure (altimeter):29.96 inches Hg (1014.6 mb)
Winds:calm
Visibility:10 or more sm (16+ km)
Ceiling:at least 12,000 feet AGL
Clouds:sky clear below 12,000 feet AGL
QC Flag:automated observation with no human augmentation
Text:KOUN 030655Z AUTO 11003KT 10SM CLR 24/21 A2996 RMK AO2 LTG DSNT NW T02360208
Temperature: 23.6°C ( 74°F)
Dewpoint: 20.8°C ( 69°F) [RH = 84%]
Pressure (altimeter):29.96 inches Hg (1014.6 mb)
Winds:from the ESE (110 degrees) at 3 MPH (3 knots; 1.5 m/s)
Visibility:10 or more sm (16+ km)
Ceiling:at least 12,000 feet AGL
Clouds:sky clear below 12,000 feet AGL
QC Flag:automated observation with no human augmentation
Text:KOUN 030635Z AUTO 00000KT 10SM CLR 22/21 A2996 RMK AO2 T02240205
Temperature: 22.4°C ( 72°F)
Dewpoint: 20.5°C ( 69°F) [RH = 89%]
Pressure (altimeter):29.96 inches Hg (1014.6 mb)
Winds:calm
Visibility:10 or more sm (16+ km)
Ceiling:at least 12,000 feet AGL
Clouds:sky clear below 12,000 feet AGL
QC Flag:automated observation with no human augmentation
Text:KOUN 030615Z AUTO 00000KT 10SM CLR 24/21 A2996 RMK AO2 T02380205
Temperature: 23.8°C ( 75°F)
Dewpoint: 20.5°C ( 69°F) [RH = 82%]
Pressure (altimeter):29.96 inches Hg (1014.6 mb)
Winds:calm
Visibility:10 or more sm (16+ km)
Ceiling:at least 12,000 feet AGL
Clouds:sky clear below 12,000 feet AGL
QC Flag:automated observation with no human augmentation